createdAt,value
2019-01-18T07:07:20.695Z,9.13
2019-01-18T07:08:52.903Z,7.30
2019-01-18T07:10:25.168Z,6.92
2019-01-18T07:11:57.371Z,11.15
2019-01-18T07:13:29.535Z,13.80
2019-01-18T07:15:02.164Z,11.57
2019-01-18T07:16:34.268Z,8.20
2019-01-18T07:18:06.702Z,8.38
2019-01-18T07:19:38.941Z,11.10
2019-01-18T07:21:11.185Z,9.65
2019-01-18T07:22:43.460Z,9.45
2019-01-18T07:24:15.709Z,7.60
2019-01-18T07:25:47.843Z,8.63
2019-01-18T07:27:20.130Z,9.70
2019-01-18T07:28:52.347Z,9.33
2019-01-18T07:30:29.807Z,9.80
2019-01-18T07:32:01.916Z,7.80
2019-01-18T07:33:34.085Z,8.63
2019-01-18T07:35:06.391Z,8.15
2019-01-18T07:36:38.612Z,10.20
2019-01-18T07:38:10.933Z,8.93
2019-01-18T07:39:43.215Z,7.87
2019-01-18T07:41:15.452Z,8.98
2019-01-18T07:42:47.701Z,9.80
2019-01-18T07:44:20.009Z,9.23
2019-01-18T07:45:52.115Z,9.80
2019-01-18T07:47:24.376Z,9.20
2019-01-18T07:48:56.471Z,11.03
2019-01-18T07:50:28.749Z,11.03
2019-01-18T07:52:01.005Z,12.25
2019-01-18T07:53:33.314Z,11.15
2019-01-18T07:55:06.212Z,13.58
2019-01-18T07:56:38.493Z,13.80
2019-01-18T07:58:10.798Z,14.07
2019-01-18T07:59:43.077Z,14.78
2019-01-18T08:01:21.771Z,14.85
2019-01-18T08:02:49.297Z,16.50
2019-01-18T08:04:21.412Z,16.75
2019-01-18T08:05:53.633Z,14.60
2019-01-18T08:07:25.773Z,16.87
2019-01-18T08:08:57.838Z,16.60
2019-01-18T08:10:30.095Z,16.97
2019-01-18T08:12:02.489Z,17.32
2019-01-18T08:13:34.669Z,18.42
2019-01-18T08:15:09.069Z,16.70
2019-01-18T08:16:41.213Z,18.27
2019-01-18T08:18:13.329Z,15.00
2019-01-18T08:19:45.414Z,14.30
2019-01-18T08:21:17.657Z,19.65
2019-01-18T08:22:49.952Z,17.90
2019-01-18T08:24:22.232Z,16.93
2019-01-18T08:25:54.508Z,19.20
2019-01-18T08:27:26.629Z,21.17
2019-01-18T08:28:58.913Z,16.17
2019-01-18T08:30:31.217Z,17.70
2019-01-18T08:32:03.521Z,15.60
2019-01-18T08:33:35.620Z,19.32
2019-01-18T08:35:09.295Z,19.07
2019-01-18T08:36:41.426Z,17.37
2019-01-18T08:38:13.599Z,16.45
2019-01-18T08:39:45.841Z,19.10
2019-01-18T08:41:18.009Z,15.55
2019-01-18T08:42:50.160Z,22.27
2019-01-18T08:44:22.291Z,20.97
2019-01-18T08:45:57.052Z,16.70
2019-01-18T08:47:29.116Z,20.35
2019-01-18T08:49:01.394Z,19.90
2019-01-18T08:50:33.502Z,18.30
2019-01-18T08:52:05.699Z,17.32
2019-01-18T08:53:37.804Z,15.58
2019-01-18T08:55:10.110Z,17.60
2019-01-18T08:56:42.409Z,20.20
2019-01-18T08:58:14.502Z,21.20
2019-01-18T08:59:47.502Z,19.15
2019-01-18T09:01:19.756Z,23.47
2019-01-18T09:02:51.970Z,30.70
2019-01-18T09:04:24.106Z,34.33
2019-01-18T09:05:56.487Z,29.82
2019-01-18T09:07:28.720Z,25.50
2019-01-18T09:09:00.983Z,22.70
2019-01-18T09:10:33.298Z,23.05
2019-01-18T09:12:05.599Z,21.57
2019-01-18T09:13:37.834Z,22.15
2019-01-18T09:15:10.273Z,22.10
2019-01-18T09:16:42.499Z,26.52
2019-01-18T09:18:14.635Z,22.45
2019-01-18T09:19:46.883Z,21.42
2019-01-18T09:21:19.208Z,20.95
2019-01-18T09:22:51.549Z,20.88
2019-01-18T09:24:23.798Z,38.70
2019-01-18T09:25:55.940Z,52.15
2019-01-18T09:27:28.248Z,108.52
2019-01-18T09:29:00.478Z,50.73
2019-01-18T09:30:33.293Z,41.15
2019-01-18T09:32:05.583Z,25.17
2019-01-18T09:33:37.866Z,24.95
2019-01-18T09:35:10.939Z,22.25
2019-01-18T09:36:43.241Z,20.08
2019-01-18T09:38:17.892Z,21.80
2019-01-18T09:39:49.733Z,19.92
2019-01-18T09:41:21.981Z,19.07
2019-01-18T09:42:54.261Z,20.68
2019-01-18T09:44:26.486Z,18.02
2019-01-18T09:45:58.605Z,19.27
2019-01-18T09:47:30.830Z,16.80
2019-01-18T09:49:03.375Z,16.97
2019-01-18T09:50:35.601Z,19.70
2019-01-18T09:52:08.220Z,18.07
2019-01-18T09:53:40.330Z,14.23
2019-01-18T09:55:12.600Z,17.12
2019-01-18T09:56:44.758Z,14.18
2019-01-18T09:58:17.005Z,17.65
2019-01-18T09:59:49.107Z,17.40
2019-01-18T10:01:21.358Z,17.35
2019-01-18T10:02:53.720Z,16.48
2019-01-18T10:04:26.005Z,18.27
2019-01-18T10:05:58.244Z,19.85
2019-01-18T10:07:30.455Z,14.90
2019-01-18T10:09:06.359Z,14.98
2019-01-18T10:10:38.807Z,16.87
2019-01-18T10:12:10.924Z,16.32
2019-01-18T10:13:43.178Z,13.10
2019-01-18T10:15:18.106Z,14.30
2019-01-18T10:16:50.382Z,13.13
2019-01-18T10:18:22.522Z,13.08
2019-01-18T10:19:54.677Z,16.17
2019-01-18T10:21:26.955Z,14.25
2019-01-18T10:22:59.230Z,14.93
2019-01-18T10:24:31.377Z,15.03
2019-01-18T10:26:03.741Z,13.45
2019-01-18T10:27:36.045Z,13.32
2019-01-18T10:29:08.269Z,12.82
2019-01-18T10:30:40.572Z,14.63
2019-01-18T10:32:12.927Z,10.03
2019-01-18T10:33:45.241Z,14.53
2019-01-18T10:35:18.007Z,11.78
2019-01-18T10:36:50.284Z,13.90
2019-01-18T10:38:22.538Z,11.93
2019-01-18T10:39:54.881Z,15.45
2019-01-18T10:41:27.196Z,14.43
2019-01-18T10:42:59.657Z,11.85
2019-01-18T10:44:31.885Z,13.32
2019-01-18T10:46:04.113Z,12.58
2019-01-18T10:47:36.273Z,9.53
2019-01-18T10:49:08.688Z,12.53
2019-01-18T10:50:40.965Z,13.08
2019-01-18T10:52:13.257Z,11.78
2019-01-18T10:53:45.544Z,12.28
2019-01-18T10:55:17.807Z,10.38
2019-01-18T10:56:50.033Z,12.40
2019-01-18T10:58:22.417Z,11.53
2019-01-18T10:59:54.505Z,16.70
2019-01-18T11:01:26.755Z,12.45
2019-01-18T11:02:58.855Z,10.68
2019-01-18T11:04:31.126Z,10.53
2019-01-18T11:06:03.456Z,11.12
2019-01-18T11:07:35.780Z,12.10
2019-01-18T11:09:08.788Z,10.63
2019-01-18T11:10:41.206Z,8.68
2019-01-18T11:12:13.642Z,10.75
2019-01-18T11:13:45.880Z,12.23
2019-01-18T11:15:20.025Z,10.08
2019-01-18T11:16:52.301Z,12.25
2019-01-18T11:18:24.530Z,11.48
2019-01-18T11:19:56.854Z,10.18
2019-01-18T11:21:29.000Z,9.10
2019-01-18T11:23:01.113Z,10.28
2019-01-18T11:24:33.246Z,12.43
2019-01-18T11:26:05.320Z,15.05
2019-01-18T11:27:37.594Z,14.23
2019-01-18T11:29:09.745Z,10.60
2019-01-18T11:30:42.017Z,10.25
2019-01-18T11:32:14.251Z,9.60
2019-01-18T11:33:46.490Z,11.22
2019-01-18T11:35:18.749Z,9.90
2019-01-18T11:36:51.005Z,11.03
2019-01-18T11:38:23.218Z,12.45
2019-01-18T11:39:55.558Z,10.53
2019-01-18T11:41:27.668Z,9.63
2019-01-18T11:42:59.965Z,9.45
2019-01-18T11:44:32.072Z,8.35
2019-01-18T11:46:04.219Z,10.80
2019-01-18T11:47:36.352Z,13.70
2019-01-18T11:49:08.657Z,10.00
2019-01-18T11:50:40.937Z,9.83
2019-01-18T11:52:13.033Z,10.93
2019-01-18T11:53:45.344Z,11.68
2019-01-18T11:55:17.625Z,10.72
2019-01-18T11:56:49.886Z,11.95
2019-01-18T11:58:22.196Z,11.33
2019-01-18T11:59:54.456Z,13.50
2019-01-18T12:01:26.703Z,10.68
2019-01-18T12:02:58.861Z,9.25
2019-01-18T12:04:30.994Z,12.07
2019-01-18T12:06:03.231Z,11.33
2019-01-18T12:07:35.413Z,10.78
2019-01-18T12:09:07.543Z,12.37
2019-01-18T12:10:39.614Z,9.60
2019-01-18T12:12:11.723Z,9.73
2019-01-18T12:13:43.875Z,9.95
2019-01-18T12:15:16.177Z,9.65
2019-01-18T12:16:48.470Z,11.48
2019-01-18T12:18:20.775Z,8.40
2019-01-18T12:19:53.021Z,11.57
2019-01-18T12:21:25.298Z,8.63
2019-01-18T12:22:57.678Z,12.03
2019-01-18T12:24:29.786Z,11.45
2019-01-18T12:26:01.945Z,10.68
2019-01-18T12:27:34.033Z,10.53
2019-01-18T12:29:06.243Z,11.60
2019-01-18T12:30:38.428Z,9.55
2019-01-18T12:32:10.691Z,11.45
2019-01-18T12:33:42.945Z,10.28
2019-01-18T12:35:15.365Z,10.38
2019-01-18T12:36:47.670Z,9.93
2019-01-18T12:38:19.823Z,9.68
2019-01-18T12:39:52.133Z,10.40
2019-01-18T12:41:24.450Z,12.18
2019-01-18T12:42:57.854Z,14.07
2019-01-18T12:44:30.264Z,14.55
2019-01-18T12:46:02.400Z,10.70
2019-01-18T12:47:34.581Z,11.22
2019-01-18T12:49:06.823Z,11.00
2019-01-18T12:50:40.456Z,10.88
2019-01-18T12:52:12.721Z,11.20
2019-01-18T12:53:44.832Z,11.50
2019-01-18T12:55:17.086Z,10.25
2019-01-18T12:56:49.201Z,10.23
2019-01-18T12:58:21.520Z,10.10
2019-01-18T12:59:53.750Z,9.10
2019-01-18T13:01:26.013Z,10.93
2019-01-18T13:02:58.267Z,9.70
2019-01-18T13:04:30.565Z,9.33
2019-01-18T13:06:03.056Z,11.70
2019-01-18T13:07:35.161Z,13.72
2019-01-18T13:09:07.454Z,10.18
2019-01-18T13:10:39.605Z,10.88
2019-01-18T13:12:11.839Z,9.68
2019-01-18T13:13:44.077Z,7.45
2019-01-18T13:15:26.364Z,10.35
2019-01-18T13:16:58.603Z,10.43
2019-01-18T13:18:31.170Z,10.80
2019-01-18T13:20:04.469Z,10.10
2019-01-18T13:21:36.736Z,10.30
2019-01-18T13:23:09.146Z,7.37
2019-01-18T13:24:41.415Z,11.00
2019-01-18T13:26:13.645Z,8.68
2019-01-18T13:27:45.834Z,10.38
2019-01-18T13:29:18.068Z,9.78
2019-01-18T13:30:50.356Z,8.60
2019-01-18T13:32:22.486Z,10.10
2019-01-18T13:33:54.763Z,7.53
2019-01-18T13:35:27.662Z,7.95
2019-01-18T13:37:00.087Z,6.97
2019-01-18T13:38:32.326Z,8.65
2019-01-18T13:40:08.550Z,9.20
2019-01-18T13:41:40.762Z,8.50
2019-01-18T13:43:13.221Z,8.58
2019-01-18T13:44:45.481Z,8.08
2019-01-18T13:46:17.818Z,7.67
2019-01-18T13:47:50.135Z,9.38
2019-01-18T13:49:22.456Z,9.55
2019-01-18T13:50:54.680Z,9.13
2019-01-18T13:52:26.853Z,9.53
2019-01-18T13:53:59.115Z,7.08
2019-01-18T13:55:31.247Z,8.55
2019-01-18T13:57:03.606Z,9.93
2019-01-18T13:58:35.872Z,9.03
2019-01-18T14:00:09.024Z,12.00
2019-01-18T14:01:41.103Z,6.37
2019-01-18T14:03:13.197Z,9.35
2019-01-18T14:04:45.502Z,8.40
2019-01-18T14:06:17.675Z,6.87
2019-01-18T14:07:53.376Z,6.45
2019-01-18T14:09:24.108Z,6.95
2019-01-18T14:10:56.739Z,7.47
2019-01-18T14:12:29.009Z,6.78
2019-01-18T14:14:01.119Z,8.80
2019-01-18T14:15:33.194Z,8.15
2019-01-18T14:17:05.475Z,8.53
2019-01-18T14:18:37.742Z,7.62
2019-01-18T14:20:11.766Z,12.18
2019-01-18T14:21:44.037Z,15.78
2019-01-18T14:23:16.336Z,20.65
2019-01-18T14:24:48.592Z,14.98
2019-01-18T14:26:20.867Z,11.03
2019-01-18T14:27:53.014Z,8.80
2019-01-18T14:29:25.262Z,13.53
2019-01-18T14:30:57.481Z,6.90
2019-01-18T14:32:29.712Z,7.30
2019-01-18T14:34:01.849Z,7.58
2019-01-18T14:35:34.006Z,6.17
2019-01-18T14:37:06.297Z,9.50
2019-01-18T14:38:38.455Z,6.05
2019-01-18T14:40:11.686Z,6.70
2019-01-18T14:41:43.797Z,7.08
2019-01-18T14:43:16.098Z,6.62
2019-01-18T14:44:48.348Z,9.50
2019-01-18T14:46:20.479Z,6.70
2019-01-18T14:47:53.121Z,7.95
2019-01-18T14:49:25.447Z,7.58
2019-01-18T14:50:57.756Z,9.95
2019-01-18T14:52:29.963Z,7.58
2019-01-18T14:54:02.115Z,6.97
2019-01-18T14:55:34.824Z,7.05
2019-01-18T14:57:07.006Z,8.35
2019-01-18T14:58:39.108Z,5.75
2019-01-18T15:00:15.501Z,9.73
2019-01-18T15:01:47.594Z,8.00
2019-01-18T15:03:19.909Z,7.90
2019-01-18T15:04:52.113Z,7.17
2019-01-18T15:06:24.284Z,8.18
2019-01-18T15:07:56.379Z,5.75
2019-01-18T15:09:28.666Z,7.75
2019-01-18T15:11:00.932Z,6.42
2019-01-18T15:12:33.212Z,7.50
2019-01-18T15:14:05.407Z,11.80
2019-01-18T15:15:37.689Z,5.83
2019-01-18T15:17:09.975Z,8.80
2019-01-18T15:18:42.221Z,6.45
2019-01-18T15:20:17.199Z,6.40
2019-01-18T15:21:49.431Z,7.20
2019-01-18T15:23:21.647Z,7.50
2019-01-18T15:24:53.954Z,8.63
2019-01-18T15:26:26.302Z,8.48
2019-01-18T15:27:58.515Z,7.72
2019-01-18T15:29:30.637Z,6.95
2019-01-18T15:31:02.884Z,8.20
2019-01-18T15:32:35.091Z,6.75
2019-01-18T15:34:07.327Z,10.70
2019-01-18T15:35:39.580Z,8.93
2019-01-18T15:37:11.837Z,7.67
2019-01-18T15:38:43.940Z,8.53
2019-01-18T15:40:19.179Z,12.60
2019-01-18T15:41:51.380Z,9.28
2019-01-18T15:43:23.807Z,10.38
2019-01-18T15:44:55.946Z,6.83
2019-01-18T15:46:28.178Z,9.55
2019-01-18T15:48:00.488Z,7.33
2019-01-18T15:49:32.576Z,8.98
2019-01-18T15:51:04.807Z,11.55
2019-01-18T15:52:36.957Z,8.10
2019-01-18T15:54:09.229Z,9.75
2019-01-18T15:55:41.451Z,8.30
2019-01-18T15:57:13.693Z,11.33
2019-01-18T15:58:45.763Z,9.43
2019-01-18T16:00:32.019Z,10.13
2019-01-18T16:02:04.674Z,10.55
2019-01-18T16:03:37.016Z,13.05
2019-01-18T16:05:09.309Z,11.63
2019-01-18T16:06:41.540Z,10.72
2019-01-18T16:08:13.675Z,11.40
2019-01-18T16:09:45.901Z,10.88
2019-01-18T16:11:18.171Z,11.78
2019-01-18T16:12:50.543Z,9.75
2019-01-18T16:14:22.725Z,10.48
2019-01-18T16:16:06.093Z,7.90
2019-01-18T16:17:38.543Z,9.68
2019-01-18T16:19:10.820Z,13.43
2019-01-18T16:20:43.054Z,11.43
2019-01-18T16:22:15.373Z,17.52
2019-01-18T16:23:47.594Z,12.78
2019-01-18T16:25:27.560Z,7.62
2019-01-18T16:26:59.780Z,10.85
2019-01-18T16:28:31.920Z,11.15
2019-01-18T16:30:06.101Z,17.48
2019-01-18T16:31:38.213Z,11.28
2019-01-18T16:33:10.693Z,9.25
2019-01-18T16:34:42.801Z,8.90
2019-01-18T16:36:14.950Z,11.95
2019-01-18T16:37:48.145Z,13.60
2019-01-18T16:39:20.447Z,10.63
2019-01-18T16:40:52.689Z,10.40
2019-01-18T16:42:24.923Z,9.95
2019-01-18T16:43:57.035Z,11.18
2019-01-18T16:45:29.141Z,9.53
2019-01-18T16:47:01.369Z,14.73
2019-01-18T16:48:33.634Z,9.15
2019-01-18T16:50:07.832Z,9.55
2019-01-18T16:51:40.005Z,7.55
2019-01-18T16:53:12.142Z,7.90
2019-01-18T16:54:44.409Z,9.53
2019-01-18T16:56:16.526Z,9.03
2019-01-18T16:57:48.873Z,9.75
2019-01-18T16:59:21.039Z,6.72
2019-01-18T17:00:54.507Z,8.23
2019-01-18T17:02:26.777Z,6.67
2019-01-18T17:03:59.069Z,7.55
2019-01-18T17:05:31.360Z,8.03
2019-01-18T17:07:03.844Z,8.00
2019-01-18T17:08:36.080Z,9.93
2019-01-18T17:10:09.395Z,8.88
2019-01-18T17:11:41.525Z,6.83
2019-01-18T17:13:13.759Z,9.88
2019-01-18T17:14:46.061Z,10.30
2019-01-18T17:16:18.333Z,7.33
2019-01-18T17:17:50.579Z,8.48
2019-01-18T17:19:22.695Z,10.65
2019-01-18T17:20:54.831Z,9.38
2019-01-18T17:22:27.104Z,14.45
2019-01-18T17:23:59.178Z,13.03
2019-01-18T17:25:31.272Z,14.23
2019-01-18T17:27:03.508Z,17.32
2019-01-18T17:28:35.638Z,14.83
2019-01-18T17:30:11.255Z,10.55
2019-01-18T17:31:43.549Z,11.43
2019-01-18T17:33:15.917Z,11.08
2019-01-18T17:34:48.013Z,12.60
2019-01-18T17:36:33.701Z,15.18
2019-01-18T17:38:13.309Z,15.98
2019-01-18T17:40:16.715Z,18.15
2019-01-18T17:42:35.951Z,16.02
2019-01-18T17:44:33.365Z,17.35
2019-01-18T17:46:23.698Z,16.25
2019-01-18T17:48:24.861Z,16.40
2019-01-18T17:50:47.211Z,14.95
2019-01-18T17:52:59.043Z,10.70
2019-01-18T17:54:37.902Z,13.75
2019-01-18T17:56:44.289Z,14.85
2019-01-18T17:59:10.474Z,13.85
2019-01-18T18:01:24.509Z,11.93
2019-01-18T18:03:52.393Z,15.95
2019-01-18T18:06:12.510Z,11.48
2019-01-18T18:08:12.382Z,14.28
2019-01-18T18:10:21.662Z,13.25
2019-01-18T18:12:30.251Z,10.08
2019-01-18T18:14:50.226Z,12.20
2019-01-18T18:16:54.905Z,11.38
2019-01-18T18:18:42.993Z,14.10
2019-01-18T18:21:18.591Z,12.70
2019-01-18T18:23:23.122Z,11.73
2019-01-18T18:25:18.552Z,13.40
2019-01-18T18:27:54.047Z,16.15
2019-01-18T18:29:57.882Z,11.83
2019-01-18T18:32:00.287Z,13.20
2019-01-18T18:34:20.763Z,12.03
2019-01-18T18:36:49.240Z,12.47
2019-01-18T18:38:52.837Z,15.48
2019-01-18T18:40:51.105Z,13.83
2019-01-18T18:42:59.757Z,14.35
2019-01-18T18:45:01.458Z,11.90
2019-01-18T18:47:18.825Z,14.87
2019-01-18T18:49:36.193Z,12.75
2019-01-18T18:51:45.896Z,17.10
2019-01-18T18:53:55.659Z,13.95
2019-01-18T18:56:04.008Z,16.17
2019-01-18T18:58:26.759Z,15.88
2019-01-18T19:00:19.297Z,14.13
2019-01-18T19:02:29.085Z,10.55
2019-01-18T19:04:37.332Z,13.38
2019-01-18T19:06:58.984Z,14.58
2019-01-18T19:08:59.304Z,15.05
2019-01-18T19:11:15.708Z,17.45
2019-01-18T19:13:23.876Z,16.85
2019-01-18T19:15:21.989Z,12.70
2019-01-18T19:17:25.228Z,14.65
2019-01-18T19:19:35.559Z,16.37
2019-01-18T19:21:45.828Z,16.35
2019-01-18T19:24:08.721Z,17.07
2019-01-18T19:26:05.916Z,18.75
2019-01-18T19:27:58.018Z,21.75
2019-01-18T19:29:39.892Z,19.92
2019-01-18T19:31:58.867Z,21.95
2019-01-18T19:34:13.568Z,18.87
2019-01-18T19:36:24.732Z,21.25
2019-01-18T19:38:26.808Z,23.85
2019-01-18T19:40:43.704Z,18.15
2019-01-18T19:42:41.529Z,22.37
2019-01-18T19:44:43.241Z,20.70
2019-01-18T19:46:29.754Z,20.80
2019-01-18T19:48:58.988Z,22.30
2019-01-18T19:51:11.027Z,16.97
2019-01-18T19:53:24.926Z,18.25
2019-01-18T19:55:19.761Z,18.37
2019-01-18T19:57:22.325Z,17.55
2019-01-18T19:59:29.395Z,17.87
2019-01-18T20:01:25.994Z,15.50
2019-01-18T20:03:32.733Z,27.50
2019-01-18T20:05:42.437Z,17.07
2019-01-18T20:08:08.649Z,14.18
2019-01-18T20:09:53.990Z,15.30
2019-01-18T20:12:04.170Z,16.07
2019-01-18T20:14:27.240Z,14.23
2019-01-18T20:16:24.289Z,12.28
2019-01-18T20:18:47.514Z,14.75
2019-01-18T20:21:16.841Z,13.88
2019-01-18T20:23:21.959Z,15.05
2019-01-18T20:25:07.450Z,13.90
2019-01-18T20:27:06.050Z,14.05
2019-01-18T20:29:17.705Z,14.33
2019-01-18T20:31:30.890Z,12.65
2019-01-18T20:33:40.521Z,17.02
2019-01-18T20:36:03.017Z,18.45
2019-01-18T20:38:29.061Z,15.88
2019-01-18T20:40:33.011Z,15.35
2019-01-18T20:42:16.553Z,12.20
2019-01-18T20:44:32.958Z,14.50
2019-01-18T20:46:44.791Z,14.63
2019-01-18T20:49:01.833Z,13.60
2019-01-18T20:51:11.542Z,15.20
2019-01-18T20:53:06.573Z,12.05
2019-01-18T20:55:16.634Z,14.15
2019-01-18T20:57:10.774Z,13.60
2019-01-18T20:59:05.285Z,14.73
2019-01-18T21:01:11.570Z,16.05
2019-01-18T21:03:20.393Z,15.18
2019-01-18T21:05:07.733Z,17.00
2019-01-18T21:06:49.297Z,17.48
2019-01-18T21:09:09.629Z,13.22
2019-01-18T21:11:01.177Z,15.90
2019-01-18T21:12:58.784Z,16.25
2019-01-18T21:15:13.073Z,15.90
2019-01-18T21:17:36.958Z,14.55
2019-01-18T21:19:44.350Z,19.12
2019-01-18T21:21:42.579Z,13.22
2019-01-18T21:23:48.574Z,13.95
2019-01-18T21:25:47.538Z,16.15
2019-01-18T21:28:05.013Z,16.48
2019-01-18T21:30:04.864Z,16.00
2019-01-18T21:31:45.715Z,14.35
2019-01-18T21:33:59.197Z,16.37
2019-01-18T21:35:43.335Z,16.35
2019-01-18T21:38:11.529Z,12.58
2019-01-18T21:40:18.949Z,15.63
2019-01-18T21:42:18.133Z,15.65
2019-01-18T21:44:37.342Z,17.98
2019-01-18T21:46:48.815Z,16.75
2019-01-18T21:49:02.333Z,14.33
2019-01-18T21:51:15.174Z,17.70
2019-01-18T21:53:14.018Z,15.05
2019-01-18T21:55:36.071Z,14.73
2019-01-18T21:57:49.044Z,14.35
2019-01-18T21:59:47.612Z,15.10
2019-01-18T22:01:58.747Z,15.13
2019-01-18T22:03:59.857Z,13.78
2019-01-18T22:06:00.641Z,16.73
2019-01-18T22:08:29.736Z,14.28
2019-01-18T22:10:16.479Z,13.18
2019-01-18T22:12:07.381Z,13.08
2019-01-18T22:14:04.311Z,14.30
2019-01-18T22:16:04.548Z,14.55
2019-01-18T22:18:18.513Z,15.58
2019-01-18T22:20:25.749Z,18.30
2019-01-18T22:22:33.949Z,16.45
2019-01-18T22:24:22.214Z,15.13
2019-01-18T22:26:54.333Z,14.60
2019-01-18T22:28:52.201Z,15.80
2019-01-18T22:30:48.777Z,16.42
2019-01-18T22:33:21.329Z,16.15
2019-01-18T22:35:34.243Z,15.63
2019-01-18T22:37:28.315Z,18.40
2019-01-18T22:39:40.938Z,15.25
2019-01-18T22:41:59.925Z,18.75
2019-01-18T22:44:18.390Z,19.40
2019-01-18T22:46:31.313Z,20.82
2019-01-18T22:48:34.926Z,18.20
2019-01-18T22:50:21.285Z,18.02
2019-01-18T22:52:43.877Z,18.12
2019-01-18T22:55:06.223Z,17.30
2019-01-18T22:57:23.015Z,16.23
2019-01-18T22:59:29.373Z,17.67
2019-01-18T23:01:32.841Z,17.20
2019-01-18T23:03:26.316Z,15.98
2019-01-18T23:05:25.146Z,17.37
2019-01-18T23:07:28.356Z,14.05
2019-01-18T23:09:39.284Z,16.07
2019-01-18T23:11:56.556Z,19.10
2019-01-18T23:14:09.086Z,18.02
2019-01-18T23:16:27.647Z,17.55
2019-01-18T23:18:19.119Z,20.85
2019-01-18T23:20:25.482Z,21.62
2019-01-18T23:22:39.420Z,17.05
2019-01-18T23:24:30.311Z,17.85
2019-01-18T23:26:56.765Z,24.65
2019-01-18T23:29:03.168Z,21.77
2019-01-18T23:31:08.776Z,19.27
2019-01-18T23:33:21.611Z,17.80
2019-01-18T23:35:28.773Z,19.00
2019-01-18T23:37:10.048Z,20.80
2019-01-18T23:39:38.285Z,24.55
2019-01-18T23:41:50.285Z,17.05
2019-01-18T23:43:53.665Z,19.57
2019-01-18T23:46:02.131Z,22.30
2019-01-18T23:48:10.821Z,24.65
2019-01-18T23:50:09.492Z,20.95
2019-01-18T23:52:28.562Z,19.65
2019-01-18T23:54:47.184Z,20.50
2019-01-18T23:56:37.428Z,20.32
2019-01-18T23:58:49.096Z,19.50
